Aviation Digital Data Service (ADDS)

Output produced by METARs form (1857 UTC 19 April 2019)
found at http://www.aviationweather.gov/metar/data/
 
Forecast for: VABB (BOMBAY/SANTACRUZ, IN)
Text: TAF VABB 191700Z 1918/2003 33005KT 3000 HZ NSC
Forecast period: 1800 UTC 19 April 2019 to 0000 UTC 20 April 2019
Forecast type: FROM: standard forecast or significant change
Winds: from the NNW (330 degrees) at 6 MPH (5 knots; 2.6 m/s)
Visibility: 1.86 miles (2.99 km)
Ceiling: unknown
Clouds: missing
Weather: HZ  (haze)
Text: BECMG 2000/2002 03004KT
Forecast period: 0000 to 0300 UTC 20 April 2019
Forecast type: BECOMING: Conditions expected to become as follows by 0200 UTC 20 April 2019
Winds: from the NNE (30 degrees) at 5 MPH (4 knots; 2.1 m/s)
Visibility: 1.86 miles (2.99 km)
Ceiling: unknown
Clouds: missing
Weather: HZ  (haze)